sensor_id;sensor_type;location;lat;lon;timestamp;pressure;altitude;pressure_sealevel;temperature;humidity
8637;BME280;4356;49.068;8.658;2023-05-29T00:02:13;99940.09;;;24.85;37.46
8637;BME280;4356;49.068;8.658;2023-05-29T00:04:39;99941.19;;;24.84;37.32
8637;BME280;4356;49.068;8.658;2023-05-29T00:07:05;99942.56;;;24.86;37.40
8637;BME280;4356;49.068;8.658;2023-05-29T00:09:31;99937.03;;;24.81;37.45
8637;BME280;4356;49.068;8.658;2023-05-29T00:11:56;99937.88;;;24.82;37.46
8637;BME280;4356;49.068;8.658;2023-05-29T00:14:22;99941.97;;;24.79;37.55
8637;BME280;4356;49.068;8.658;2023-05-29T00:16:51;99937.00;;;24.76;37.53
8637;BME280;4356;49.068;8.658;2023-05-29T00:19:17;99939.19;;;24.74;37.59
8637;BME280;4356;49.068;8.658;2023-05-29T00:21:45;99938.34;;;24.74;37.50
8637;BME280;4356;49.068;8.658;2023-05-29T00:24:14;99938.28;;;24.69;37.53
8637;BME280;4356;49.068;8.658;2023-05-29T00:26:40;99941.38;;;24.72;37.50
8637;BME280;4356;49.068;8.658;2023-05-29T00:29:05;99935.28;;;24.70;37.40
8637;BME280;4356;49.068;8.658;2023-05-29T00:31:31;99939.34;;;24.68;37.70
8637;BME280;4356;49.068;8.658;2023-05-29T00:33:56;99945.69;;;24.68;37.39
8637;BME280;4356;49.068;8.658;2023-05-29T00:36:22;99943.47;;;24.65;37.42
8637;BME280;4356;49.068;8.658;2023-05-29T00:38:49;99941.78;;;24.64;37.69
8637;BME280;4356;49.068;8.658;2023-05-29T00:41:15;99942.38;;;24.66;37.45
8637;BME280;4356;49.068;8.658;2023-05-29T00:43:41;99937.41;;;24.63;37.46
8637;BME280;4356;49.068;8.658;2023-05-29T00:46:09;99929.94;;;24.59;37.59
8637;BME280;4356;49.068;8.658;2023-05-29T00:48:35;99933.25;;;24.61;37.57
8637;BME280;4356;49.068;8.658;2023-05-29T00:51:01;99924.44;;;24.59;37.65
8637;BME280;4356;49.068;8.658;2023-05-29T00:53:27;99917.00;;;24.54;37.50
8637;BME280;4356;49.068;8.658;2023-05-29T00:55:53;99926.63;;;24.57;37.48
8637;BME280;4356;49.068;8.658;2023-05-29T00:58:20;99925.81;;;24.56;37.61
8637;BME280;4356;49.068;8.658;2023-05-29T01:00:46;99922.75;;;24.53;37.76
8637;BME280;4356;49.068;8.658;2023-05-29T01:03:12;99931.81;;;24.53;37.49
8637;BME280;4356;49.068;8.658;2023-05-29T01:05:40;99916.94;;;24.49;37.68
8637;BME280;4356;49.068;8.658;2023-05-29T01:08:06;99911.94;;;24.46;37.80
8637;BME280;4356;49.068;8.658;2023-05-29T01:10:32;99913.59;;;24.42;37.68
8637;BME280;4356;49.068;8.658;2023-05-29T01:13:13;99920.19;;;24.46;37.45
8637;BME280;4356;49.068;8.658;2023-05-29T01:16:01;99924.06;;;24.45;37.67
8637;BME280;4356;49.068;8.658;2023-05-29T01:24:14;99923.44;;;24.38;37.65
8637;BME280;4356;49.068;8.658;2023-05-29T01:27:09;99931.94;;;24.36;37.79
8637;BME280;4356;49.068;8.658;2023-05-29T01:29:38;99915.16;;;24.33;37.78
8637;BME280;4356;49.068;8.658;2023-05-29T01:32:04;99923.94;;;24.35;37.67
8637;BME280;4356;49.068;8.658;2023-05-29T01:34:30;99916.22;;;24.32;37.65
8637;BME280;4356;49.068;8.658;2023-05-29T01:36:56;99921.44;;;24.33;37.70
8637;BME280;4356;49.068;8.658;2023-05-29T01:39:22;99918.13;;;24.31;37.48
8637;BME280;4356;49.068;8.658;2023-05-29T01:41:49;99915.91;;;24.28;37.75
8637;BME280;4356;49.068;8.658;2023-05-29T01:44:16;99913.44;;;24.27;37.70
8637;BME280;4356;49.068;8.658;2023-05-29T01:46:42;99912.28;;;24.23;37.79
8637;BME280;4356;49.068;8.658;2023-05-29T01:49:09;99920.00;;;24.26;37.79
8637;BME280;4356;49.068;8.658;2023-05-29T01:51:36;99914.72;;;24.19;37.77
8637;BME280;4356;49.068;8.658;2023-05-29T01:54:03;99924.94;;;24.24;37.78
8637;BME280;4356;49.068;8.658;2023-05-29T01:56:30;99907.59;;;24.18;37.69
8637;BME280;4356;49.068;8.658;2023-05-29T01:58:57;99917.22;;;24.21;37.61
8637;BME280;4356;49.068;8.658;2023-05-29T02:01:23;99927.38;;;24.20;37.80
8637;BME280;4356;49.068;8.658;2023-05-29T02:03:48;99924.06;;;24.18;37.63
8637;BME280;4356;49.068;8.658;2023-05-29T02:06:14;99918.81;;;24.17;37.62
8637;BME280;4356;49.068;8.658;2023-05-29T02:08:40;99911.34;;;24.12;37.77
8637;BME280;4356;49.068;8.658;2023-05-29T02:11:06;99921.81;;;24.15;37.85
8637;BME280;4356;49.068;8.658;2023-05-29T02:13:31;99911.34;;;24.12;37.66
8637;BME280;4356;49.068;8.658;2023-05-29T02:15:57;99909.44;;;24.13;37.64
8637;BME280;4356;49.068;8.658;2023-05-29T02:18:23;99914.09;;;24.12;37.78
8637;BME280;4356;49.068;8.658;2023-05-29T02:20:49;99909.94;;;24.10;37.80
8637;BME280;4356;49.068;8.658;2023-05-29T02:23:15;99913.78;;;24.09;37.75
8637;BME280;4356;49.068;8.658;2023-05-29T02:25:41;99906.09;;;24.06;37.54
8637;BME280;4356;49.068;8.658;2023-05-29T02:28:07;99912.66;;;24.05;37.56
8637;BME280;4356;49.068;8.658;2023-05-29T02:30:32;99913.16;;;24.02;37.62
8637;BME280;4356;49.068;8.658;2023-05-29T02:32:58;99916.75;;;24.02;37.73
8637;BME280;4356;49.068;8.658;2023-05-29T02:35:24;99917.81;;;24.01;37.73
8637;BME280;4356;49.068;8.658;2023-05-29T02:37:50;99917.22;;;23.99;37.54
8637;BME280;4356;49.068;8.658;2023-05-29T02:40:16;99918.94;;;24.00;37.84
8637;BME280;4356;49.068;8.658;2023-05-29T02:42:42;99919.66;;;23.96;37.75
8637;BME280;4356;49.068;8.658;2023-05-29T02:45:08;99928.72;;;23.96;37.72
8637;BME280;4356;49.068;8.658;2023-05-29T02:47:34;99932.00;;;23.93;37.74
8637;BME280;4356;49.068;8.658;2023-05-29T02:50:01;99925.09;;;23.91;37.46
8637;BME280;4356;49.068;8.658;2023-05-29T02:52:26;99927.31;;;23.94;37.86
8637;BME280;4356;49.068;8.658;2023-05-29T02:54:52;99932.47;;;23.90;37.72
8637;BME280;4356;49.068;8.658;2023-05-29T02:57:19;99918.44;;;23.87;37.67
8637;BME280;4356;49.068;8.658;2023-05-29T02:59:45;99922.03;;;23.87;37.69
8637;BME280;4356;49.068;8.658;2023-05-29T03:02:11;99923.63;;;23.83;37.65
8637;BME280;4356;49.068;8.658;2023-05-29T03:04:37;99934.59;;;23.83;37.77
8637;BME280;4356;49.068;8.658;2023-05-29T03:07:02;99939.03;;;23.84;37.87
8637;BME280;4356;49.068;8.658;2023-05-29T03:09:28;99929.94;;;23.84;37.94
8637;BME280;4356;49.068;8.658;2023-05-29T03:11:53;99929.31;;;23.77;37.89
8637;BME280;4356;49.068;8.658;2023-05-29T03:14:19;99930.97;;;23.78;37.88
8637;BME280;4356;49.068;8.658;2023-05-29T03:16:47;99929.06;;;23.78;37.89
8637;BME280;4356;49.068;8.658;2023-05-29T03:19:13;99928.16;;;23.73;37.72
8637;BME280;4356;49.068;8.658;2023-05-29T03:21:38;99927.91;;;23.74;37.71
8637;BME280;4356;49.068;8.658;2023-05-29T03:24:04;99931.75;;;23.73;37.82
8637;BME280;4356;49.068;8.658;2023-05-29T03:26:30;99925.94;;;23.70;37.89
8637;BME280;4356;49.068;8.658;2023-05-29T03:28:56;99929.75;;;23.69;37.79
8637;BME280;4356;49.068;8.658;2023-05-29T03:31:21;99929.16;;;23.67;37.94
8637;BME280;4356;49.068;8.658;2023-05-29T03:33:48;99938.25;;;23.67;37.93
8637;BME280;4356;49.068;8.658;2023-05-29T03:36:15;99919.78;;;23.63;37.82
8637;BME280;4356;49.068;8.658;2023-05-29T03:38:43;99921.47;;;23.64;37.72
8637;BME280;4356;49.068;8.658;2023-05-29T03:41:09;99919.47;;;23.59;37.94
8637;BME280;4356;49.068;8.658;2023-05-29T03:43:35;99931.28;;;23.60;37.66
8637;BME280;4356;49.068;8.658;2023-05-29T03:46:01;99920.50;;;23.53;38.08
8637;BME280;4356;49.068;8.658;2023-05-29T03:48:27;99937.59;;;23.60;37.96
8637;BME280;4356;49.068;8.658;2023-05-29T03:50:53;99932.38;;;23.59;38.11
8637;BME280;4356;49.068;8.658;2023-05-29T03:53:18;99934.53;;;23.57;38.11
8637;BME280;4356;49.068;8.658;2023-05-29T03:55:44;99923.41;;;23.46;37.96
8637;BME280;4356;49.068;8.658;2023-05-29T03:58:09;99945.47;;;23.52;38.07
8637;BME280;4356;49.068;8.658;2023-05-29T04:00:38;99940.44;;;23.48;38.24
8637;BME280;4356;49.068;8.658;2023-05-29T04:03:04;99948.94;;;23.47;37.91
8637;BME280;4356;49.068;8.658;2023-05-29T04:05:29;99953.09;;;23.50;38.14
8637;BME280;4356;49.068;8.658;2023-05-29T04:07:56;99953.31;;;23.48;38.25
8637;BME280;4356;49.068;8.658;2023-05-29T04:10:21;99956.59;;;23.45;38.19
8637;BME280;4356;49.068;8.658;2023-05-29T04:12:48;99969.78;;;23.48;38.29
8637;BME280;4356;49.068;8.658;2023-05-29T04:15:13;99965.06;;;23.43;38.12
8637;BME280;4356;49.068;8.658;2023-05-29T04:17:39;99963.19;;;23.44;38.12
8637;BME280;4356;49.068;8.658;2023-05-29T04:20:05;99966.41;;;23.41;38.28
8637;BME280;4356;49.068;8.658;2023-05-29T04:22:37;99966.41;;;23.41;38.32
8637;BME280;4356;49.068;8.658;2023-05-29T04:25:03;99971.88;;;23.41;38.31
8637;BME280;4356;49.068;8.658;2023-05-29T04:27:31;99978.22;;;23.41;38.40
8637;BME280;4356;49.068;8.658;2023-05-29T04:29:58;99980.38;;;23.39;38.13
8637;BME280;4356;49.068;8.658;2023-05-29T04:32:23;99990.50;;;23.39;38.46
8637;BME280;4356;49.068;8.658;2023-05-29T04:34:49;99989.94;;;23.37;38.29
8637;BME280;4356;49.068;8.658;2023-05-29T04:37:16;99996.00;;;23.39;38.22
8637;BME280;4356;49.068;8.658;2023-05-29T04:39:42;99996.50;;;23.36;38.25
8637;BME280;4356;49.068;8.658;2023-05-29T04:42:08;99998.66;;;23.34;38.18
8637;BME280;4356;49.068;8.658;2023-05-29T04:44:33;99998.66;;;23.34;38.34
8637;BME280;4356;49.068;8.658;2023-05-29T04:46:59;99998.91;;;23.32;38.33
8637;BME280;4356;49.068;8.658;2023-05-29T04:49:28;100001.66;;;23.32;38.16
8637;BME280;4356;49.068;8.658;2023-05-29T04:51:54;100011.31;;;23.35;38.24
8637;BME280;4356;49.068;8.658;2023-05-29T04:54:21;100007.16;;;23.32;38.33
8637;BME280;4356;49.068;8.658;2023-05-29T04:56:47;100013.72;;;23.31;38.46
8637;BME280;4356;49.068;8.658;2023-05-29T04:59:13;100010.41;;;23.29;38.43
8637;BME280;4356;49.068;8.658;2023-05-29T05:01:38;100023.28;;;23.29;38.43
8637;BME280;4356;49.068;8.658;2023-05-29T05:04:04;100024.44;;;23.33;38.35
8637;BME280;4356;49.068;8.658;2023-05-29T05:06:30;100019.66;;;23.28;38.44
8637;BME280;4356;49.068;8.658;2023-05-29T05:08:55;100024.44;;;23.33;38.23
8637;BME280;4356;49.068;8.658;2023-05-29T05:11:22;100026.84;;;23.29;38.35
8637;BME280;4356;49.068;8.658;2023-05-29T05:13:48;100027.66;;;23.30;38.29
8637;BME280;4356;49.068;8.658;2023-05-29T05:16:13;100024.34;;;23.28;38.53
8637;BME280;4356;49.068;8.658;2023-05-29T05:18:39;100028.75;;;23.29;38.41
8637;BME280;4356;49.068;8.658;2023-05-29T05:21:05;100038.41;;;23.31;38.52
8637;BME280;4356;49.068;8.658;2023-05-29T05:23:31;100037.56;;;23.31;38.41
8637;BME280;4356;49.068;8.658;2023-05-29T05:25:57;100033.88;;;23.25;38.48
8637;BME280;4356;49.068;8.658;2023-05-29T05:28:23;100041.16;;;23.31;38.50
8637;BME280;4356;49.068;8.658;2023-05-29T05:30:48;100041.16;;;23.31;38.57
8637;BME280;4356;49.068;8.658;2023-05-29T05:33:14;100037.19;;;23.27;38.42
8637;BME280;4356;49.068;8.658;2023-05-29T05:35:39;100046.06;;;23.29;38.51
8637;BME280;4356;49.068;8.658;2023-05-29T05:38:05;100039.72;;;23.29;38.41
8637;BME280;4356;49.068;8.658;2023-05-29T05:40:31;100045.78;;;23.31;38.32
8637;BME280;4356;49.068;8.658;2023-05-29T05:42:57;100052.34;;;23.30;38.49
8637;BME280;4356;49.068;8.658;2023-05-29T05:45:23;100041.38;;;23.30;38.39
8637;BME280;4356;49.068;8.658;2023-05-29T05:47:48;100040.56;;;23.29;38.59
8637;BME280;4356;49.068;8.658;2023-05-29T05:50:14;100045.22;;;23.29;38.33
8637;BME280;4356;49.068;8.658;2023-05-29T05:52:40;100054.84;;;23.31;38.62
8637;BME280;4356;49.068;8.658;2023-05-29T05:55:06;100049.59;;;23.30;38.47
8637;BME280;4356;49.068;8.658;2023-05-29T05:57:31;100054.03;;;23.31;38.56
8637;BME280;4356;49.068;8.658;2023-05-29T06:00:04;100066.97;;;23.35;38.45
8637;BME280;4356;49.068;8.658;2023-05-29T06:02:33;100073.03;;;23.37;38.35
8637;BME280;4356;49.068;8.658;2023-05-29T06:04:59;100067.22;;;23.34;38.52
8637;BME280;4356;49.068;8.658;2023-05-29T06:07:24;100072.44;;;23.35;38.40
8637;BME280;4356;49.068;8.658;2023-05-29T06:09:50;100084.59;;;23.39;38.35
8637;BME280;4356;49.068;8.658;2023-05-29T06:12:16;100081.00;;;23.39;38.35
8637;BME280;4356;49.068;8.658;2023-05-29T06:14:41;100081.38;;;23.42;38.23
8637;BME280;4356;49.068;8.658;2023-05-29T06:17:07;100084.91;;;23.43;38.34
8637;BME280;4356;49.068;8.658;2023-05-29T06:19:32;100086.59;;;23.44;38.33
8637;BME280;4356;49.068;8.658;2023-05-29T06:21:58;100083.59;;;23.45;38.36
8637;BME280;4356;49.068;8.658;2023-05-29T06:24:23;100086.34;;;23.45;38.23
8637;BME280;4356;49.068;8.658;2023-05-29T06:26:49;100088.31;;;23.50;38.29
8637;BME280;4356;49.068;8.658;2023-05-29T06:29:15;100094.41;;;23.52;38.22
8637;BME280;4356;49.068;8.658;2023-05-29T06:31:41;100093.06;;;23.55;38.22
8637;BME280;4356;49.068;8.658;2023-05-29T06:34:06;100083.41;;;23.52;37.98
8637;BME280;4356;49.068;8.658;2023-05-29T06:36:32;100080.75;;;23.57;38.02
8637;BME280;4356;49.068;8.658;2023-05-29T06:38:57;100075.84;;;23.59;38.12
8637;BME280;4356;49.068;8.658;2023-05-29T06:41:23;100081.44;;;23.64;37.97
8637;BME280;4356;49.068;8.658;2023-05-29T06:43:49;100078.38;;;23.61;37.79
8637;BME280;4356;49.068;8.658;2023-05-29T06:46:15;100081.75;;;23.68;37.85
8637;BME280;4356;49.068;8.658;2023-05-29T06:48:40;100082.56;;;23.68;37.87
8637;BME280;4356;49.068;8.658;2023-05-29T06:51:06;100085.97;;;23.75;37.78
8637;BME280;4356;49.068;8.658;2023-05-29T06:53:37;100093.13;;;23.76;37.69
8637;BME280;4356;49.068;8.658;2023-05-29T06:56:03;100088.22;;;23.78;37.68
8637;BME280;4356;49.068;8.658;2023-05-29T06:58:30;100081.63;;;23.79;37.70
8637;BME280;4356;49.068;8.658;2023-05-29T07:00:56;100088.88;;;23.85;37.67
8637;BME280;4356;49.068;8.658;2023-05-29T07:03:21;100087.78;;;23.86;37.43
8637;BME280;4356;49.068;8.658;2023-05-29T07:05:47;100076.25;;;23.84;37.28
8637;BME280;4356;49.068;8.658;2023-05-29T07:08:12;100083.19;;;23.92;37.55
8637;BME280;4356;49.068;8.658;2023-05-29T07:10:38;100082.13;;;23.93;37.46
8637;BME280;4356;49.068;8.658;2023-05-29T07:13:03;100091.25;;;23.98;37.45
8637;BME280;4356;49.068;8.658;2023-05-29T07:15:31;100086.38;;;24.00;37.33
8637;BME280;4356;49.068;8.658;2023-05-29T07:17:57;100097.69;;;24.04;37.29
8637;BME280;4356;49.068;8.658;2023-05-29T07:20:23;100088.94;;;24.07;37.24
8637;BME280;4356;49.068;8.658;2023-05-29T07:22:48;100093.91;;;24.10;37.15
8637;BME280;4356;49.068;8.658;2023-05-29T07:25:14;100101.66;;;24.13;37.20
8637;BME280;4356;49.068;8.658;2023-05-29T07:27:40;100097.81;;;24.14;37.05
8637;BME280;4356;49.068;8.658;2023-05-29T07:30:06;100103.38;;;24.19;37.01
8637;BME280;4356;49.068;8.658;2023-05-29T07:32:32;100096.81;;;24.20;37.03
8637;BME280;4356;49.068;8.658;2023-05-29T07:34:58;100101.78;;;24.23;37.01
8637;BME280;4356;49.068;8.658;2023-05-29T07:37:23;100100.19;;;24.27;36.82
8637;BME280;4356;49.068;8.658;2023-05-29T07:39:49;100089.22;;;24.27;37.07
8637;BME280;4356;49.068;8.658;2023-05-29T07:42:14;100092.28;;;24.30;36.93
8637;BME280;4356;49.068;8.658;2023-05-29T07:44:40;100097.81;;;24.35;36.82
8637;BME280;4356;49.068;8.658;2023-05-29T07:47:09;100103.88;;;24.37;36.85
8637;BME280;4356;49.068;8.658;2023-05-29T07:49:34;100097.88;;;24.40;36.73
8637;BME280;4356;49.068;8.658;2023-05-29T07:52:02;100107.53;;;24.43;36.66
8637;BME280;4356;49.068;8.658;2023-05-29T07:54:27;100112.28;;;24.48;36.77
8637;BME280;4356;49.068;8.658;2023-05-29T07:56:53;100111.50;;;24.52;36.61
8637;BME280;4356;49.068;8.658;2023-05-29T07:59:20;100102.19;;;24.53;36.55
8637;BME280;4356;49.068;8.658;2023-05-29T08:01:49;100106.88;;;24.58;36.52
8637;BME280;4356;49.068;8.658;2023-05-29T08:04:15;100110.47;;;24.58;36.44
8637;BME280;4356;49.068;8.658;2023-05-29T08:06:42;100105.88;;;24.64;36.58
8637;BME280;4356;49.068;8.658;2023-05-29T08:09:09;100102.84;;;24.65;36.44
8637;BME280;4356;49.068;8.658;2023-05-29T08:11:36;100108.44;;;24.70;36.42
8637;BME280;4356;49.068;8.658;2023-05-29T08:14:02;100104.34;;;24.73;36.35
8637;BME280;4356;49.068;8.658;2023-05-29T08:16:28;100109.31;;;24.76;36.44
8637;BME280;4356;49.068;8.658;2023-05-29T08:18:53;100101.66;;;24.78;36.41
8637;BME280;4356;49.068;8.658;2023-05-29T08:21:19;100098.66;;;24.79;36.32
8637;BME280;4356;49.068;8.658;2023-05-29T08:23:45;100097.34;;;24.87;36.21
8637;BME280;4356;49.068;8.658;2023-05-29T08:26:10;100091.84;;;24.87;36.27
8637;BME280;4356;49.068;8.658;2023-05-29T08:28:36;100092.16;;;24.90;36.21
8637;BME280;4356;49.068;8.658;2023-05-29T08:31:01;100095.22;;;24.94;36.10
8637;BME280;4356;49.068;8.658;2023-05-29T08:33:27;100096.63;;;24.96;36.09
8637;BME280;4356;49.068;8.658;2023-05-29T08:35:52;100096.09;;;24.99;36.07
8637;BME280;4356;49.068;8.658;2023-05-29T08:38:18;100104.66;;;25.03;36.25
8637;BME280;4356;49.068;8.658;2023-05-29T08:40:46;100097.25;;;25.03;35.89
8637;BME280;4356;49.068;8.658;2023-05-29T08:43:17;100098.72;;;25.11;36.05
8637;BME280;4356;49.068;8.658;2023-05-29T08:45:48;100098.72;;;25.11;35.90
8637;BME280;4356;49.068;8.658;2023-05-29T08:48:18;100094.09;;;25.16;36.00
8637;BME280;4356;49.068;8.658;2023-05-29T08:50:45;100097.72;;;25.22;35.71
8637;BME280;4356;49.068;8.658;2023-05-29T08:53:15;100095.78;;;25.22;35.72
8637;BME280;4356;49.068;8.658;2023-05-29T08:55:41;100097.19;;;25.25;35.71
8637;BME280;4356;49.068;8.658;2023-05-29T08:58:07;100098.03;;;25.25;35.74
8637;BME280;4356;49.068;8.658;2023-05-29T09:00:33;100096.16;;;25.31;35.47
8637;BME280;4356;49.068;8.658;2023-05-29T09:02:59;100102.50;;;25.36;35.67
8637;BME280;4356;49.068;8.658;2023-05-29T09:05:25;100087.94;;;25.36;35.56
8637;BME280;4356;49.068;8.658;2023-05-29T09:07:55;100100.66;;;25.42;35.65
8637;BME280;4356;49.068;8.658;2023-05-29T09:10:21;100098.19;;;25.45;35.35
8637;BME280;4356;49.068;8.658;2023-05-29T09:12:47;100081.09;;;25.38;35.64
8637;BME280;4356;49.068;8.658;2023-05-29T09:15:20;100095.81;;;25.54;35.23
8637;BME280;4356;49.068;8.658;2023-05-29T09:17:50;100103.25;;;25.59;35.21
8637;BME280;4356;49.068;8.658;2023-05-29T09:20:18;100099.16;;;25.61;35.49
8637;BME280;4356;49.068;8.658;2023-05-29T09:25:22;100092.03;;;25.65;35.07
8637;BME280;4356;49.068;8.658;2023-05-29T09:27:51;100095.66;;;25.71;35.13
8637;BME280;4356;49.068;8.658;2023-05-29T09:30:37;100097.59;;;25.75;35.22
8637;BME280;4356;49.068;8.658;2023-05-29T09:33:03;100102.56;;;25.78;35.08
8637;BME280;4356;49.068;8.658;2023-05-29T09:35:34;100106.47;;;25.82;35.35
8637;BME280;4356;49.068;8.658;2023-05-29T09:38:02;100095.44;;;25.82;35.13
8637;BME280;4356;49.068;8.658;2023-05-29T09:40:46;100097.41;;;25.87;34.80
8637;BME280;4356;49.068;8.658;2023-05-29T09:43:13;100085.56;;;25.86;35.00
8637;BME280;4356;49.068;8.658;2023-05-29T09:45:45;100094.97;;;25.95;34.83
8637;BME280;4356;49.068;8.658;2023-05-29T09:48:19;100094.97;;;25.95;34.97
8637;BME280;4356;49.068;8.658;2023-05-29T09:50:47;100102.47;;;26.00;34.93
8637;BME280;4356;49.068;8.658;2023-05-29T09:53:17;100100.50;;;26.00;34.89
8637;BME280;4356;49.068;8.658;2023-05-29T09:55:47;100106.41;;;26.09;34.84
8637;BME280;4356;49.068;8.658;2023-05-29T09:58:14;100090.69;;;26.09;34.78
8637;BME280;4356;49.068;8.658;2023-05-29T10:00:44;100096.22;;;26.14;34.77
8637;BME280;4356;49.068;8.658;2023-05-29T10:03:11;100090.69;;;26.14;34.82
8637;BME280;4356;49.068;8.658;2023-05-29T10:05:41;100099.00;;;26.19;34.95
8637;BME280;4356;49.068;8.658;2023-05-29T10:08:14;100095.72;;;26.22;34.50
8637;BME280;4356;49.068;8.658;2023-05-29T10:10:43;100095.16;;;26.25;34.42
8637;BME280;4356;49.068;8.658;2023-05-29T10:13:11;100089.13;;;26.28;34.35
8637;BME280;4356;49.068;8.658;2023-05-29T10:15:38;100082.25;;;26.31;34.69
8637;BME280;4356;49.068;8.658;2023-05-29T10:18:12;100086.97;;;26.35;34.34
8637;BME280;4356;49.068;8.658;2023-05-29T10:20:40;100083.66;;;26.38;34.39
8637;BME280;4356;49.068;8.658;2023-05-29T10:23:08;100070.16;;;26.37;34.25
8637;BME280;4356;49.068;8.658;2023-05-29T10:25:35;100074.88;;;26.41;34.36
8637;BME280;4356;49.068;8.658;2023-05-29T10:28:01;100074.59;;;26.48;34.28
8637;BME280;4356;49.068;8.658;2023-05-29T10:30:38;100071.28;;;26.51;34.20
8637;BME280;4356;49.068;8.658;2023-05-29T10:38:14;100068.31;;;26.58;34.10
8637;BME280;4356;49.068;8.658;2023-05-29T10:40:42;100072.44;;;26.60;34.21
8637;BME280;4356;49.068;8.658;2023-05-29T10:43:08;100076.31;;;26.64;33.95
8637;BME280;4356;49.068;8.658;2023-05-29T10:50:42;100069.47;;;26.72;33.79
8637;BME280;4356;49.068;8.658;2023-05-29T10:53:18;100064.78;;;26.72;33.77
8637;BME280;4356;49.068;8.658;2023-05-29T10:55:48;100064.50;;;26.74;33.93
8637;BME280;4356;49.068;8.658;2023-05-29T10:58:18;100073.63;;;26.79;33.52
8637;BME280;4356;49.068;8.658;2023-05-29T11:00:45;100059.84;;;26.79;33.95
8637;BME280;4356;49.068;8.658;2023-05-29T11:03:15;100069.50;;;26.87;33.74
8637;BME280;4356;49.068;8.658;2023-05-29T11:06:00;100070.88;;;26.89;33.81
8637;BME280;4356;49.068;8.658;2023-05-29T11:11:32;100075.31;;;26.95;33.64
8637;BME280;4356;49.068;8.658;2023-05-29T11:14:06;100067.03;;;26.95;33.83
8637;BME280;4356;49.068;8.658;2023-05-29T11:18:59;100073.13;;;27.02;33.72
8637;BME280;4356;49.068;8.658;2023-05-29T11:24:00;100072.03;;;27.08;33.62
8637;BME280;4356;49.068;8.658;2023-05-29T11:26:30;100076.16;;;27.11;33.87
8637;BME280;4356;49.068;8.658;2023-05-29T11:29:00;100072.03;;;27.13;33.69
8637;BME280;4356;49.068;8.658;2023-05-29T11:31:28;100062.91;;;27.13;33.80
8637;BME280;4356;49.068;8.658;2023-05-29T11:33:59;100059.88;;;27.14;33.37
8637;BME280;4356;49.068;8.658;2023-05-29T11:36:25;100073.13;;;27.22;33.81
8637;BME280;4356;49.068;8.658;2023-05-29T11:38:53;100070.09;;;27.24;33.81
8637;BME280;4356;49.068;8.658;2023-05-29T11:41:19;100061.25;;;27.22;33.76
8637;BME280;4356;49.068;8.658;2023-05-29T11:44:02;100068.44;;;27.28;33.50
8637;BME280;4356;49.068;8.658;2023-05-29T11:46:28;100059.63;;;27.31;33.13
8637;BME280;4356;49.068;8.658;2023-05-29T11:49:00;100062.94;;;27.33;33.10
8637;BME280;4356;49.068;8.658;2023-05-29T11:51:26;100067.38;;;27.39;33.44
8637;BME280;4356;49.068;8.658;2023-05-29T11:53:52;100062.13;;;27.37;33.12
8637;BME280;4356;49.068;8.658;2023-05-29T11:56:29;100064.59;;;27.44;33.08
8637;BME280;4356;49.068;8.658;2023-05-29T11:58:57;100064.31;;;27.46;33.55
8637;BME280;4356;49.068;8.658;2023-05-29T12:01:25;100068.47;;;27.48;33.20
8637;BME280;4356;49.068;8.658;2023-05-29T12:03:51;100060.47;;;27.47;33.27
8637;BME280;4356;49.068;8.658;2023-05-29T12:06:30;100056.31;;;27.49;33.56
8637;BME280;4356;49.068;8.658;2023-05-29T12:08:57;100069.28;;;27.54;33.48
8637;BME280;4356;49.068;8.658;2023-05-29T12:11:25;100065.13;;;27.56;33.23
8637;BME280;4356;49.068;8.658;2023-05-29T12:13:58;100060.72;;;27.55;33.28
8637;BME280;4356;49.068;8.658;2023-05-29T12:16:26;100055.75;;;27.62;33.03
8637;BME280;4356;49.068;8.658;2023-05-29T12:18:53;100056.59;;;27.63;32.97
8637;BME280;4356;49.068;8.658;2023-05-29T12:21:20;100052.41;;;27.65;33.25
8637;BME280;4356;49.068;8.658;2023-05-29T12:23:46;100050.50;;;27.66;33.20
8637;BME280;4356;49.068;8.658;2023-05-29T12:26:12;100052.16;;;27.72;32.92
8637;BME280;4356;49.068;8.658;2023-05-29T12:28:45;100044.97;;;27.66;33.03
8637;BME280;4356;49.068;8.658;2023-05-29T12:31:11;100066.78;;;27.77;32.89
8637;BME280;4356;49.068;8.658;2023-05-29T12:33:42;100055.16;;;27.80;32.84
8637;BME280;4356;49.068;8.658;2023-05-29T12:36:09;100059.31;;;27.83;32.73
8637;BME280;4356;49.068;8.658;2023-05-29T12:39:04;100060.13;;;27.83;32.70
8637;BME280;4356;49.068;8.658;2023-05-29T12:41:35;100054.31;;;27.85;32.45
8637;BME280;4356;49.068;8.658;2023-05-29T12:44:05;100047.97;;;27.89;32.49
8637;BME280;4356;49.068;8.658;2023-05-29T12:46:36;100053.19;;;27.91;32.49
8637;BME280;4356;49.068;8.658;2023-05-29T12:49:16;100053.19;;;27.96;32.25
8637;BME280;4356;49.068;8.658;2023-05-29T12:51:44;100038.84;;;27.94;32.55
8637;BME280;4356;49.068;8.658;2023-05-29T12:54:11;100052.66;;;27.99;32.35
8637;BME280;4356;49.068;8.658;2023-05-29T12:56:38;100053.22;;;28.01;32.57
8637;BME280;4356;49.068;8.658;2023-05-29T12:59:09;100051.53;;;28.05;32.21
8637;BME280;4356;49.068;8.658;2023-05-29T13:01:36;100052.91;;;28.07;32.13
8637;BME280;4356;49.068;8.658;2023-05-29T13:04:04;100046.00;;;28.10;32.38
8637;BME280;4356;49.068;8.658;2023-05-29T13:06:33;100037.72;;;28.05;32.25
8637;BME280;4356;49.068;8.658;2023-05-29T13:08:58;100048.47;;;28.11;32.20
8637;BME280;4356;49.068;8.658;2023-05-29T13:11:24;100044.84;;;28.16;32.23
8637;BME280;4356;49.068;8.658;2023-05-29T13:13:51;100040.16;;;28.16;32.14
8637;BME280;4356;49.068;8.658;2023-05-29T13:16:17;100043.72;;;28.22;31.95
8637;BME280;4356;49.068;8.658;2023-05-29T13:18:43;100027.72;;;28.19;32.08
8637;BME280;4356;49.068;8.658;2023-05-29T13:21:09;100029.91;;;28.22;32.11
8637;BME280;4356;49.068;8.658;2023-05-29T13:23:35;100031.00;;;28.26;32.13
8637;BME280;4356;49.068;8.658;2023-05-29T13:26:01;100031.81;;;28.26;31.93
8637;BME280;4356;49.068;8.658;2023-05-29T13:28:26;100027.38;;;28.30;32.19
8637;BME280;4356;49.068;8.658;2023-05-29T13:30:52;100019.91;;;28.31;32.04
8637;BME280;4356;49.068;8.658;2023-05-29T13:33:18;100021.00;;;28.35;32.12
8637;BME280;4356;49.068;8.658;2023-05-29T13:35:43;100026.25;;;28.36;31.65
8637;BME280;4356;49.068;8.658;2023-05-29T13:38:09;100022.91;;;28.39;31.81
8637;BME280;4356;49.068;8.658;2023-05-29T13:40:34;100021.81;;;28.40;31.82
8637;BME280;4356;49.068;8.658;2023-05-29T13:43:01;100014.06;;;28.42;31.68